sensor_id;sensor_type;location;lat;lon;timestamp;temperature;humidity
19435;DHT22;9853;50.848;4.108;2024-03-02T07:39:59;9.30;99.90
19435;DHT22;9853;50.848;4.108;2024-03-02T09:28:47;12.50;99.90
19435;DHT22;9853;50.848;4.108;2024-03-02T09:31:27;12.40;99.90
19435;DHT22;9853;50.848;4.108;2024-03-02T09:33:23;12.10;99.90
19435;DHT22;9853;50.848;4.108;2024-03-02T09:35:50;11.60;99.90
19435;DHT22;9853;50.848;4.108;2024-03-02T09:38:06;11.50;99.90
19435;DHT22;9853;50.848;4.108;2024-03-02T10:14:20;11.70;99.90
19435;DHT22;9853;50.848;4.108;2024-03-02T10:35:25;12.00;99.90
19435;DHT22;9853;50.848;4.108;2024-03-02T10:41:26;11.70;99.90
19435;DHT22;9853;50.848;4.108;2024-03-02T10:54:43;11.70;99.90
19435;DHT22;9853;50.848;4.108;2024-03-02T11:18:23;11.80;99.90
19435;DHT22;9853;50.848;4.108;2024-03-02T13:16:49;12.70;99.90
19435;DHT22;9853;50.848;4.108;2024-03-02T13:26:54;13.00;99.90
19435;DHT22;9853;50.848;4.108;2024-03-02T13:34:19;12.70;99.90
19435;DHT22;9853;50.848;4.108;2024-03-02T13:46:02;12.50;99.90
19435;DHT22;9853;50.848;4.108;2024-03-02T14:07:06;12.70;99.90
19435;DHT22;9853;50.848;4.108;2024-03-02T14:09:39;12.70;99.90
19435;DHT22;9853;50.848;4.108;2024-03-02T14:12:23;12.80;99.90
19435;DHT22;9853;50.848;4.108;2024-03-02T14:14:39;13.00;99.90
19435;DHT22;9853;50.848;4.108;2024-03-02T14:17:08;13.10;99.90
19435;DHT22;9853;50.848;4.108;2024-03-02T14:19:58;13.40;99.90
19435;DHT22;9853;50.848;4.108;2024-03-02T14:25:48;13.20;99.90
19435;DHT22;9853;50.848;4.108;2024-03-02T14:28:16;12.90;99.90
19435;DHT22;9853;50.848;4.108;2024-03-02T14:41:58;12.80;99.90
19435;DHT22;9853;50.848;4.108;2024-03-02T14:44:13;12.80;99.90
19435;DHT22;9853;50.848;4.108;2024-03-02T14:46:19;12.80;99.90
19435;DHT22;9853;50.848;4.108;2024-03-02T14:48:28;12.90;99.90
19435;DHT22;9853;50.848;4.108;2024-03-02T14:50:47;12.80;99.90
19435;DHT22;9853;50.848;4.108;2024-03-02T14:53:04;12.60;99.90
19435;DHT22;9853;50.848;4.108;2024-03-02T14:55:22;12.70;99.90
19435;DHT22;9853;50.848;4.108;2024-03-02T14:57:46;12.60;99.90
19435;DHT22;9853;50.848;4.108;2024-03-02T15:00:01;12.70;99.90
19435;DHT22;9853;50.848;4.108;2024-03-02T15:02:16;13.00;99.90
19435;DHT22;9853;50.848;4.108;2024-03-02T15:04:37;12.80;99.90
19435;DHT22;9853;50.848;4.108;2024-03-02T15:06:56;12.80;99.90
19435;DHT22;9853;50.848;4.108;2024-03-02T15:09:27;12.70;99.90
19435;DHT22;9853;50.848;4.108;2024-03-02T15:11:59;12.70;99.90
19435;DHT22;9853;50.848;4.108;2024-03-02T15:17:01;12.60;99.90
19435;DHT22;9853;50.848;4.108;2024-03-02T15:19:12;12.50;99.90
19435;DHT22;9853;50.848;4.108;2024-03-02T15:21:54;12.50;99.90
19435;DHT22;9853;50.848;4.108;2024-03-02T15:24:04;12.70;99.90
19435;DHT22;9853;50.848;4.108;2024-03-02T15:26:22;12.70;99.90
19435;DHT22;9853;50.848;4.108;2024-03-02T15:28:51;12.60;99.90
19435;DHT22;9853;50.848;4.108;2024-03-02T15:31:27;12.70;99.90
19435;DHT22;9853;50.848;4.108;2024-03-02T15:34:10;12.60;99.90
19435;DHT22;9853;50.848;4.108;2024-03-02T15:36:50;12.60;99.90
19435;DHT22;9853;50.848;4.108;2024-03-02T15:39:32;12.60;99.90
19435;DHT22;9853;50.848;4.108;2024-03-02T15:41:36;12.70;99.90
19435;DHT22;9853;50.848;4.108;2024-03-02T15:43:58;12.70;99.90
19435;DHT22;9853;50.848;4.108;2024-03-02T15:46:04;12.70;99.90
19435;DHT22;9853;50.848;4.108;2024-03-02T15:49:07;12.60;99.90
19435;DHT22;9853;50.848;4.108;2024-03-02T15:51:34;12.60;99.90
19435;DHT22;9853;50.848;4.108;2024-03-02T15:53:58;12.50;99.90
19435;DHT22;9853;50.848;4.108;2024-03-02T15:55:59;12.40;99.90
19435;DHT22;9853;50.848;4.108;2024-03-02T15:58:07;12.40;99.90
19435;DHT22;9853;50.848;4.108;2024-03-02T16:00:11;12.50;99.90
19435;DHT22;9853;50.848;4.108;2024-03-02T16:02:22;12.60;99.90
19435;DHT22;9853;50.848;4.108;2024-03-02T16:04:33;12.80;99.90
19435;DHT22;9853;50.848;4.108;2024-03-02T16:06:41;12.80;99.90
19435;DHT22;9853;50.848;4.108;2024-03-02T16:09:17;12.70;99.90
19435;DHT22;9853;50.848;4.108;2024-03-02T16:11:29;12.80;99.90
19435;DHT22;9853;50.848;4.108;2024-03-02T16:13:40;12.80;99.90
19435;DHT22;9853;50.848;4.108;2024-03-02T16:16:13;12.60;99.90
19435;DHT22;9853;50.848;4.108;2024-03-02T16:18:25;12.50;99.90
19435;DHT22;9853;50.848;4.108;2024-03-02T16:20:48;12.50;99.90
19435;DHT22;9853;50.848;4.108;2024-03-02T16:22:52;12.50;99.90
19435;DHT22;9853;50.848;4.108;2024-03-02T16:24:56;12.50;99.90
19435;DHT22;9853;50.848;4.108;2024-03-02T16:27:08;12.60;99.90
19435;DHT22;9853;50.848;4.108;2024-03-02T16:29:13;12.50;99.90
19435;DHT22;9853;50.848;4.108;2024-03-02T16:31:20;12.50;99.90
19435;DHT22;9853;50.848;4.108;2024-03-02T16:33:25;12.50;99.90
19435;DHT22;9853;50.848;4.108;2024-03-02T16:35:33;12.40;99.90
19435;DHT22;9853;50.848;4.108;2024-03-02T16:37:54;12.30;99.90
19435;DHT22;9853;50.848;4.108;2024-03-02T16:40:15;12.30;99.90
19435;DHT22;9853;50.848;4.108;2024-03-02T16:42:47;12.40;99.90
19435;DHT22;9853;50.848;4.108;2024-03-02T16:44:59;12.30;99.90
19435;DHT22;9853;50.848;4.108;2024-03-02T16:47:04;12.30;99.90
19435;DHT22;9853;50.848;4.108;2024-03-02T16:49:06;12.30;99.90
19435;DHT22;9853;50.848;4.108;2024-03-02T16:51:24;12.40;99.90
19435;DHT22;9853;50.848;4.108;2024-03-02T16:53:37;12.40;99.90
19435;DHT22;9853;50.848;4.108;2024-03-02T16:56:29;12.40;99.90
19435;DHT22;9853;50.848;4.108;2024-03-02T16:58:41;12.40;99.90
19435;DHT22;9853;50.848;4.108;2024-03-02T17:01:00;12.30;99.90
19435;DHT22;9853;50.848;4.108;2024-03-02T17:03:01;12.30;99.90
19435;DHT22;9853;50.848;4.108;2024-03-02T17:05:02;12.30;99.90
19435;DHT22;9853;50.848;4.108;2024-03-02T17:07:13;12.30;99.90
19435;DHT22;9853;50.848;4.108;2024-03-02T17:09:29;12.40;99.90
19435;DHT22;9853;50.848;4.108;2024-03-02T17:12:17;12.50;99.90
19435;DHT22;9853;50.848;4.108;2024-03-02T17:14:27;12.40;99.90
19435;DHT22;9853;50.848;4.108;2024-03-02T17:16:36;12.30;99.90
19435;DHT22;9853;50.848;4.108;2024-03-02T17:18:48;12.30;99.90
19435;DHT22;9853;50.848;4.108;2024-03-02T17:21:20;12.10;99.90
19435;DHT22;9853;50.848;4.108;2024-03-02T17:23:32;12.10;99.90
19435;DHT22;9853;50.848;4.108;2024-03-02T17:25:43;12.10;99.90
19435;DHT22;9853;50.848;4.108;2024-03-02T17:27:46;12.10;99.90
19435;DHT22;9853;50.848;4.108;2024-03-02T17:30:00;12.00;99.90
19435;DHT22;9853;50.848;4.108;2024-03-02T17:32:08;12.00;99.90
19435;DHT22;9853;50.848;4.108;2024-03-02T17:34:20;11.90;99.90
19435;DHT22;9853;50.848;4.108;2024-03-02T17:36:50;11.90;99.90
19435;DHT22;9853;50.848;4.108;2024-03-02T17:38:59;12.00;99.90
19435;DHT22;9853;50.848;4.108;2024-03-02T17:41:24;12.00;99.90
19435;DHT22;9853;50.848;4.108;2024-03-02T17:43:28;11.80;99.90
19435;DHT22;9853;50.848;4.108;2024-03-02T17:45:33;11.90;99.90
19435;DHT22;9853;50.848;4.108;2024-03-02T17:47:43;11.90;99.90
19435;DHT22;9853;50.848;4.108;2024-03-02T17:49:44;11.90;99.90
19435;DHT22;9853;50.848;4.108;2024-03-02T17:51:44;11.80;99.90
19435;DHT22;9853;50.848;4.108;2024-03-02T17:53:54;11.80;99.90
19435;DHT22;9853;50.848;4.108;2024-03-02T17:56:31;11.90;99.90
19435;DHT22;9853;50.848;4.108;2024-03-02T17:58:49;12.00;99.90
19435;DHT22;9853;50.848;4.108;2024-03-02T18:00:55;12.00;99.90
19435;DHT22;9853;50.848;4.108;2024-03-02T18:03:04;11.90;99.90
19435;DHT22;9853;50.848;4.108;2024-03-02T18:05:10;11.80;99.90
19435;DHT22;9853;50.848;4.108;2024-03-02T18:07:52;11.80;99.90
19435;DHT22;9853;50.848;4.108;2024-03-02T18:10:20;11.80;99.90
19435;DHT22;9853;50.848;4.108;2024-03-02T18:12:21;11.70;99.90
19435;DHT22;9853;50.848;4.108;2024-03-02T18:14:28;11.70;99.90
19435;DHT22;9853;50.848;4.108;2024-03-02T18:19:21;11.70;99.90
19435;DHT22;9853;50.848;4.108;2024-03-02T18:22:15;11.70;99.90
19435;DHT22;9853;50.848;4.108;2024-03-02T18:25:33;11.60;99.90
19435;DHT22;9853;50.848;4.108;2024-03-02T18:28:30;11.50;99.90
19435;DHT22;9853;50.848;4.108;2024-03-02T18:30:47;11.40;99.90
19435;DHT22;9853;50.848;4.108;2024-03-02T18:33:04;11.30;99.90
19435;DHT22;9853;50.848;4.108;2024-03-02T18:35:39;11.40;99.90
19435;DHT22;9853;50.848;4.108;2024-03-02T18:38:19;11.50;99.90
19435;DHT22;9853;50.848;4.108;2024-03-02T18:41:03;11.50;99.90
19435;DHT22;9853;50.848;4.108;2024-03-02T18:44:01;11.50;99.90
19435;DHT22;9853;50.848;4.108;2024-03-02T18:46:09;11.50;99.90
19435;DHT22;9853;50.848;4.108;2024-03-02T18:48:22;11.40;99.90
19435;DHT22;9853;50.848;4.108;2024-03-02T18:50:34;11.30;99.90
19435;DHT22;9853;50.848;4.108;2024-03-02T20:00:40;11.50;99.90
19435;DHT22;9853;50.848;4.108;2024-03-02T20:10:29;11.40;99.90
19435;DHT22;9853;50.848;4.108;2024-03-02T20:23:18;11.40;99.90
19435;DHT22;9853;50.848;4.108;2024-03-02T20:56:10;11.40;99.90
19435;DHT22;9853;50.848;4.108;2024-03-02T20:59:14;11.40;99.90
19435;DHT22;9853;50.848;4.108;2024-03-02T21:08:41;11.40;99.90
19435;DHT22;9853;50.848;4.108;2024-03-02T21:11:32;11.30;99.90
19435;DHT22;9853;50.848;4.108;2024-03-02T21:14:22;11.40;99.90
19435;DHT22;9853;50.848;4.108;2024-03-02T21:17:15;11.30;99.90
19435;DHT22;9853;50.848;4.108;2024-03-02T21:19:27;11.20;99.90
19435;DHT22;9853;50.848;4.108;2024-03-02T21:21:44;11.20;99.90
19435;DHT22;9853;50.848;4.108;2024-03-02T21:24:15;11.30;99.90
19435;DHT22;9853;50.848;4.108;2024-03-02T21:27:09;11.30;99.90
19435;DHT22;9853;50.848;4.108;2024-03-02T21:30:00;11.40;99.90
19435;DHT22;9853;50.848;4.108;2024-03-02T21:32:46;11.40;99.90
19435;DHT22;9853;50.848;4.108;2024-03-02T21:35:22;11.40;99.90
19435;DHT22;9853;50.848;4.108;2024-03-02T21:37:55;11.50;99.90
19435;DHT22;9853;50.848;4.108;2024-03-02T21:40:46;11.60;99.90
19435;DHT22;9853;50.848;4.108;2024-03-02T21:43:46;11.50;99.90
19435;DHT22;9853;50.848;4.108;2024-03-02T21:46:30;11.50;99.90
19435;DHT22;9853;50.848;4.108;2024-03-02T21:48:51;11.50;99.90
19435;DHT22;9853;50.848;4.108;2024-03-02T21:51:28;11.50;99.90
19435;DHT22;9853;50.848;4.108;2024-03-02T21:54:18;11.60;99.90
19435;DHT22;9853;50.848;4.108;2024-03-02T21:56:58;11.50;99.90
19435;DHT22;9853;50.848;4.108;2024-03-02T22:03:12;11.40;99.90
19435;DHT22;9853;50.848;4.108;2024-03-02T22:06:41;11.60;99.90
19435;DHT22;9853;50.848;4.108;2024-03-02T22:09:02;11.30;99.90
19435;DHT22;9853;50.848;4.108;2024-03-02T22:19:46;11.50;99.90
19435;DHT22;9853;50.848;4.108;2024-03-02T22:22:10;11.50;99.90
19435;DHT22;9853;50.848;4.108;2024-03-02T22:29:16;11.70;99.90
19435;DHT22;9853;50.848;4.108;2024-03-02T22:31:58;11.80;99.90
19435;DHT22;9853;50.848;4.108;2024-03-02T22:34:42;12.00;99.90
19435;DHT22;9853;50.848;4.108;2024-03-02T22:37:00;12.10;99.90
19435;DHT22;9853;50.848;4.108;2024-03-02T22:40:19;12.00;99.90
19435;DHT22;9853;50.848;4.108;2024-03-02T22:43:04;11.90;99.90
19435;DHT22;9853;50.848;4.108;2024-03-02T22:45:42;11.80;99.90
19435;DHT22;9853;50.848;4.108;2024-03-02T22:48:14;11.80;99.90
19435;DHT22;9853;50.848;4.108;2024-03-02T22:51:15;11.80;99.90
19435;DHT22;9853;50.848;4.108;2024-03-02T22:54:08;11.90;99.90
19435;DHT22;9853;50.848;4.108;2024-03-02T22:59:56;11.30;99.90
19435;DHT22;9853;50.848;4.108;2024-03-02T23:05:53;11.40;99.90
19435;DHT22;9853;50.848;4.108;2024-03-02T23:08:59;11.30;99.90
19435;DHT22;9853;50.848;4.108;2024-03-02T23:11:28;11.00;99.90
19435;DHT22;9853;50.848;4.108;2024-03-02T23:14:02;11.00;99.90
19435;DHT22;9853;50.848;4.108;2024-03-02T23:17:24;11.00;99.90
